Time;durP1;ratioP1;P1;durP2;ratioP2;P2;SDS_P1;SDS_P2;PMS_P1;PMS_P2;Temp;Humidity;BMP_temperature;BMP_pressure;BME280_temperature;BME280_humidity;BME280_pressure;Samples;Min_cycle;Max_cycle;Signal;HPM_P1;HPM_P2
2023/05/16 00:00:54;;;;;;;16.15;3.17;;;10.10;99.90;;;;;;5031041;28;20030;-82
2023/05/16 00:03:20;;;;;;;14.02;3.03;;;10.10;99.90;;;;;;5031652;28;20077;-83
2023/05/16 00:05:46;;;;;;;12.13;3.42;;;10.10;99.90;;;;;;5031365;28;20104;-84
2023/05/16 00:08:12;;;;;;;14.40;3.10;;;10.20;99.90;;;;;;5031096;28;20037;-83
2023/05/16 00:10:38;;;;;;;17.08;3.05;;;10.30;99.90;;;;;;5031363;28;20036;-83
2023/05/16 00:13:03;;;;;;;19.85;2.53;;;10.30;99.90;;;;;;5031340;28;20061;-82
2023/05/16 00:15:29;;;;;;;7.45;2.00;;;10.30;99.90;;;;;;5031143;28;20032;-84
2023/05/16 00:17:58;;;;;;;24.17;4.50;;;10.20;99.90;;;;;;5031342;28;20112;-84
2023/05/16 00:20:27;;;;;;;24.00;3.28;;;10.30;99.90;;;;;;5031381;28;20032;-84
2023/05/16 00:22:53;;;;;;;19.98;2.65;;;10.40;99.90;;;;;;5030924;28;20029;-84
2023/05/16 00:25:19;;;;;;;17.50;3.28;;;10.50;99.90;;;;;;5031493;28;20475;-83
2023/05/16 00:27:45;;;;;;;10.90;3.13;;;10.50;99.90;;;;;;5031336;28;20029;-84
2023/05/16 00:30:11;;;;;;;18.30;3.25;;;10.50;99.90;;;;;;5030940;28;20029;-84
2023/05/16 00:32:37;;;;;;;15.00;2.65;;;10.40;99.90;;;;;;5031189;28;20032;-84
2023/05/16 00:35:03;;;;;;;14.85;2.63;;;10.20;99.90;;;;;;5030814;28;20026;-83
2023/05/16 00:37:28;;;;;;;18.35;3.13;;;10.20;99.90;;;;;;5031112;28;20021;-84
2023/05/16 00:39:54;;;;;;;19.85;2.85;;;10.20;99.90;;;;;;5030999;28;20034;-84
2023/05/16 00:42:20;;;;;;;8.23;2.05;;;10.00;99.90;;;;;;5030840;28;20025;-83
2023/05/16 00:44:46;;;;;;;16.42;3.22;;;10.10;99.90;;;;;;5030901;28;20069;-83
2023/05/16 00:47:12;;;;;;;21.17;3.45;;;10.30;99.90;;;;;;5031370;28;20036;-84
2023/05/16 00:49:37;;;;;;;17.33;3.05;;;10.30;99.90;;;;;;5030047;28;20037;-84
2023/05/16 00:52:04;;;;;;;16.98;2.88;;;10.40;99.90;;;;;;5030945;28;20058;-84
2023/05/16 00:54:30;;;;;;;11.73;2.67;;;10.50;99.90;;;;;;5031280;28;20033;-84
2023/05/16 00:56:56;;;;;;;16.63;2.30;;;10.60;99.90;;;;;;5030282;28;20052;-83
2023/05/16 00:59:23;;;;;;;11.98;2.67;;;10.60;99.90;;;;;;5031162;28;20392;-84
2023/05/16 01:01:50;;;;;;;13.25;2.70;;;10.50;99.90;;;;;;5030600;28;20025;-83
2023/05/16 01:04:16;;;;;;;14.38;2.53;;;10.50;99.90;;;;;;5030396;28;20037;-83
2023/05/16 01:06:43;;;;;;;10.18;2.97;;;10.60;99.90;;;;;;5030539;28;20116;-83
2023/05/16 01:09:09;;;;;;;20.30;3.13;;;10.60;99.90;;;;;;5030806;28;20033;-84
2023/05/16 01:11:50;;;;;;;13.38;2.53;;;10.70;99.90;;;;;;5030064;28;20024;-84
2023/05/16 01:14:33;;;;;;;18.10;2.83;;;10.70;99.90;;;;;;5031004;28;20063;-84
2023/05/16 01:16:59;;;;;;;11.60;2.85;;;10.80;99.90;;;;;;5031115;28;20033;-84
2023/05/16 01:19:39;;;;;;;16.00;2.67;;;10.70;99.90;;;;;;5029971;28;20022;-84
2023/05/16 01:22:20;;;;;;;14.00;2.60;;;10.80;99.90;;;;;;5030602;28;20037;-84
2023/05/16 01:24:48;;;;;;;;;;;10.80;99.90;;;;;;5030338;28;20105;-83
2023/05/16 01:27:15;;;;;;;18.35;2.05;;;10.80;99.90;;;;;;5030705;28;19951;-84
2023/05/16 01:29:41;;;;;;;21.50;3.85;;;10.80;99.90;;;;;;5030366;28;20120;-83
2023/05/16 01:32:06;;;;;;;11.55;2.75;;;10.70;99.90;;;;;;5029955;28;20108;-83
2023/05/16 01:34:32;;;;;;;19.85;2.58;;;10.70;99.90;;;;;;5030309;28;20480;-84
2023/05/16 01:37:01;;;;;;;12.70;3.10;;;10.70;99.90;;;;;;5030379;28;20033;-83
2023/05/16 01:39:46;;;;;;;12.85;2.00;;;10.70;99.90;;;;;;5030210;28;20034;-83
2023/05/16 01:42:15;;;;;;;14.32;2.55;;;10.60;99.90;;;;;;5030452;28;20064;-83
2023/05/16 01:45:02;;;;;;;11.75;3.08;;;10.60;99.90;;;;;;5029785;28;20053;-83
2023/05/16 01:47:30;;;;;;;20.92;2.83;;;10.80;99.90;;;;;;5029335;28;20037;-83
2023/05/16 01:50:18;;;;;;;8.73;2.25;;;10.90;99.90;;;;;;5029755;28;20075;-82
2023/05/16 01:52:51;;;;;;;12.20;2.53;;;10.90;99.90;;;;;;5029080;28;20392;-83
2023/05/16 01:55:45;;;;;;;8.20;2.65;;;11.00;99.90;;;;;;5030022;28;20500;-83
2023/05/16 01:58:13;;;;;;;11.93;2.60;;;11.00;99.90;;;;;;5020360;28;20049;-84
2023/05/16 02:00:40;;;;;;;10.25;2.47;;;11.00;99.90;;;;;;5029127;28;20040;-84
2023/05/16 02:03:06;;;;;;;13.60;2.67;;;11.00;99.90;;;;;;5029483;28;20381;-83
2023/05/16 02:05:32;;;;;;;16.80;2.75;;;11.00;99.90;;;;;;5028919;28;20540;-83
2023/05/16 02:07:58;;;;;;;15.57;2.78;;;11.00;99.90;;;;;;5029125;28;20117;-84
2023/05/16 02:10:25;;;;;;;10.73;3.42;;;11.00;99.90;;;;;;5029599;28;20354;-83
2023/05/16 02:12:51;;;;;;;15.18;2.30;;;11.10;99.90;;;;;;5029270;28;20022;-83
2023/05/16 02:15:16;;;;;;;14.85;2.97;;;11.10;99.90;;;;;;5029132;28;20033;-83
2023/05/16 02:17:42;;;;;;;19.52;3.65;;;11.00;99.90;;;;;;5029277;28;20442;-83
2023/05/16 02:20:09;;;;;;;13.05;3.05;;;11.10;99.90;;;;;;5029913;28;20037;-84
2023/05/16 02:22:35;;;;;;;12.13;2.10;;;11.10;99.90;;;;;;5028518;28;20022;-83
2023/05/16 02:25:02;;;;;;;25.40;3.15;;;11.10;99.90;;;;;;5029699;28;20045;-83
2023/05/16 02:27:28;;;;;;;9.05;2.38;;;11.10;99.90;;;;;;5028814;28;20021;-83
2023/05/16 02:29:53;;;;;;;5.50;1.98;;;11.10;99.90;;;;;;5029379;28;20037;-84
2023/05/16 02:32:19;;;;;;;10.52;2.28;;;11.20;99.90;;;;;;5029600;28;20492;-83
2023/05/16 02:34:45;;;;;;;11.38;2.75;;;11.20;99.90;;;;;;5028594;28;20033;-83
2023/05/16 02:37:10;;;;;;;11.60;2.88;;;11.20;99.90;;;;;;5029450;28;20082;-83
2023/05/16 02:39:36;;;;;;;8.40;2.00;;;11.20;99.90;;;;;;5029310;28;20053;-84
2023/05/16 02:42:03;;;;;;;14.38;2.50;;;11.20;99.90;;;;;;5028563;28;20030;-83
2023/05/16 02:44:28;;;;;;;9.90;1.88;;;11.20;99.90;;;;;;5028999;28;20400;-83
2023/05/16 02:46:54;;;;;;;13.15;3.13;;;11.20;99.90;;;;;;5029290;28;20033;-83
2023/05/16 02:49:20;;;;;;;7.28;1.95;;;11.20;99.90;;;;;;5028847;28;20038;-83
2023/05/16 02:51:46;;;;;;;10.60;2.38;;;11.10;99.90;;;;;;5029191;28;20018;-83
2023/05/16 02:54:11;;;;;;;13.57;2.28;;;11.10;99.90;;;;;;5030499;28;20577;-83
2023/05/16 02:56:37;;;;;;;14.70;2.47;;;11.10;99.90;;;;;;5028113;28;20365;-83
2023/05/16 02:59:03;;;;;;;7.10;2.20;;;11.10;99.90;;;;;;5029347;28;20384;-83
2023/05/16 03:01:29;;;;;;;12.43;2.78;;;11.10;99.90;;;;;;5029228;28;20071;-83
2023/05/16 03:03:54;;;;;;;13.48;2.38;;;11.10;99.90;;;;;;5028339;28;20030;-83
2023/05/16 03:06:20;;;;;;;13.90;3.60;;;11.20;99.90;;;;;;5029369;28;20022;-82
2023/05/16 03:08:46;;;;;;;11.98;1.70;;;11.20;99.90;;;;;;5028642;28;20034;-83
2023/05/16 03:11:11;;;;;;;9.70;2.13;;;11.20;99.90;;;;;;5028710;28;20026;-83
2023/05/16 03:13:37;;;;;;;7.80;2.03;;;11.20;99.90;;;;;;5028553;28;20029;-83
2023/05/16 03:16:04;;;;;;;12.57;1.92;;;11.30;99.90;;;;;;5029704;28;20071;-84
2023/05/16 03:18:30;;;;;;;14.32;2.47;;;11.30;99.90;;;;;;5031939;28;20021;-84
2023/05/16 03:20:56;;;;;;;9.63;1.80;;;11.20;99.90;;;;;;5032139;28;20024;-83
2023/05/16 03:23:22;;;;;;;10.05;2.92;;;11.20;99.90;;;;;;5032371;28;20036;-83
2023/05/16 03:25:47;;;;;;;8.57;2.10;;;11.30;99.90;;;;;;5031294;28;20064;-83
2023/05/16 03:28:15;;;;;;;9.15;2.00;;;11.30;99.90;;;;;;5032534;28;20037;-83
2023/05/16 03:30:41;;;;;;;11.85;2.08;;;11.20;99.90;;;;;;5032153;28;20026;-84
2023/05/16 03:33:06;;;;;;;11.57;1.95;;;11.20;99.90;;;;;;5031654;28;20070;-83
2023/05/16 03:35:33;;;;;;;10.95;1.95;;;11.30;99.90;;;;;;5031852;28;20057;-83
2023/05/16 03:37:59;;;;;;;9.95;1.88;;;11.20;99.90;;;;;;5031491;28;20022;-84
2023/05/16 03:40:24;;;;;;;9.40;1.83;;;11.20;99.90;;;;;;5032010;28;20036;-83
2023/05/16 03:42:50;;;;;;;16.58;2.13;;;11.30;99.90;;;;;;5031919;28;20035;-83
2023/05/16 03:45:15;;;;;;;8.18;1.52;;;11.20;99.90;;;;;;5031582;28;20025;-84
2023/05/16 03:47:41;;;;;;;11.00;1.63;;;11.20;99.90;;;;;;5031776;28;20358;-83
2023/05/16 03:50:08;;;;;;;12.75;2.17;;;11.20;99.90;;;;;;5032109;28;20025;-83
2023/05/16 03:52:34;;;;;;;14.63;2.10;;;11.20;99.90;;;;;;5030958;28;20109;-83
2023/05/16 03:55:01;;;;;;;16.67;2.42;;;11.20;99.90;;;;;;5031835;28;20473;-83
2023/05/16 03:57:28;;;;;;;7.85;1.92;;;11.30;99.90;;;;;;5032062;28;20048;-83
2023/05/16 03:59:54;;;;;;;6.93;2.00;;;11.20;99.90;;;;;;5031115;28;20113;-83
2023/05/16 04:02:20;;;;;;;16.88;2.60;;;11.20;99.90;;;;;;5031734;28;20109;-83
2023/05/16 04:04:45;;;;;;;13.23;2.30;;;11.30;99.90;;;;;;5031367;28;20038;-84
2023/05/16 04:07:11;;;;;;;8.38;2.28;;;11.30;99.90;;;;;;5030926;28;20021;-83
2023/05/16 04:09:36;;;;;;;13.60;2.15;;;11.20;99.90;;;;;;5031132;28;20072;-83
2023/05/16 04:12:02;;;;;;;9.75;1.85;;;11.20;99.90;;;;;;5031864;28;20082;-83
2023/05/16 04:14:28;;;;;;;10.45;1.90;;;11.20;99.90;;;;;;5031026;28;20025;-83
2023/05/16 04:16:54;;;;;;;15.43;2.97;;;11.30;99.90;;;;;;5031588;28;20384;-83
2023/05/16 04:19:19;;;;;;;11.38;2.05;;;11.20;99.90;;;;;;5031725;28;20540;-83
2023/05/16 04:21:45;;;;;;;8.75;1.98;;;11.30;99.90;;;;;;5030589;28;20032;-83
2023/05/16 04:24:10;;;;;;;14.27;2.17;;;11.30;99.90;;;;;;5031348;28;20033;-83
2023/05/16 04:26:37;;;;;;;14.35;2.70;;;11.30;99.90;;;;;;5030986;28;20037;-83
2023/05/16 04:29:03;;;;;;;10.60;1.98;;;11.20;99.90;;;;;;5030451;28;20361;-84
2023/05/16 04:31:30;;;;;;;10.73;2.20;;;11.30;99.90;;;;;;5031633;28;20025;-84
2023/05/16 04:33:56;;;;;;;8.75;1.70;;;11.30;99.90;;;;;;5030960;28;20574;-83
2023/05/16 04:36:22;;;;;;;14.00;2.28;;;11.20;99.90;;;;;;5030632;28;20037;-83
2023/05/16 04:38:48;;;;;;;7.35;2.10;;;11.20;99.90;;;;;;5031193;28;20036;-83
2023/05/16 04:41:14;;;;;;;10.30;1.92;;;11.20;99.90;;;;;;5030629;28;20022;-83
2023/05/16 04:43:40;;;;;;;11.43;1.90;;;11.30;99.90;;;;;;5030658;28;20811;-83
2023/05/16 04:46:06;;;;;;;9.07;2.58;;;11.30;99.90;;;;;;5031308;28;20098;-83
2023/05/16 04:48:33;;;;;;;8.52;1.67;;;11.30;99.90;;;;;;5029965;28;20438;-83
2023/05/16 04:50:59;;;;;;;14.00;2.38;;;11.30;99.90;;;;;;5031316;28;20030;-83
2023/05/16 04:53:24;;;;;;;10.95;2.13;;;11.30;99.90;;;;;;5030818;28;20071;-83
2023/05/16 04:55:50;;;;;;;10.07;2.38;;;11.30;99.90;;;;;;5030147;28;20025;-83
2023/05/16 04:58:16;;;;;;;24.08;2.65;;;11.30;99.90;;;;;;5031025;28;20029;-84
2023/05/16 05:00:41;;;;;;;8.35;1.70;;;11.20;99.90;;;;;;5030511;28;20449;-83
2023/05/16 05:03:07;;;;;;;10.18;2.42;;;11.10;99.90;;;;;;5030373;28;20034;-83
2023/05/16 05:05:33;;;;;;;6.93;1.70;;;11.20;99.90;;;;;;5030639;28;20067;-83
2023/05/16 05:08:00;;;;;;;12.90;2.47;;;11.20;99.90;;;;;;5030751;28;20034;-84
2023/05/16 05:10:26;;;;;;;11.55;2.40;;;11.30;99.90;;;;;;5030897;28;20045;-83
2023/05/16 05:12:52;;;;;;;8.55;1.88;;;11.20;99.90;;;;;;5030418;28;20544;-83
2023/05/16 05:15:18;;;;;;;15.55;2.25;;;11.30;99.90;;;;;;5031114;28;20117;-84
2023/05/16 05:17:43;;;;;;;15.93;2.13;;;11.30;99.90;;;;;;5029887;28;20026;-84
2023/05/16 05:20:10;;;;;;;6.20;1.75;;;11.30;99.90;;;;;;5030450;28;20112;-84
2023/05/16 05:22:36;;;;;;;8.98;2.55;;;11.30;99.90;;;;;;5030532;28;20030;-84
2023/05/16 05:25:02;;;;;;;13.60;2.90;;;11.30;99.90;;;;;;5030071;28;20033;-84
2023/05/16 05:27:27;;;;;;;8.98;1.95;;;11.40;99.90;;;;;;5030616;28;20026;-84
2023/05/16 05:29:53;;;;;;;12.88;2.33;;;11.40;99.90;;;;;;5030301;28;20404;-83
2023/05/16 05:32:18;;;;;;;10.55;1.92;;;11.40;99.90;;;;;;5029571;28;20108;-84
2023/05/16 05:34:44;;;;;;;6.43;1.88;;;11.40;99.90;;;;;;5029947;28;20025;-83
2023/05/16 05:37:09;;;;;;;11.75;2.13;;;11.30;99.90;;;;;;5030152;28;20026;-84
2023/05/16 05:39:35;;;;;;;17.33;1.90;;;11.20;99.90;;;;;;5028487;28;20089;-84
2023/05/16 05:42:04;;;;;;;10.90;2.50;;;11.20;99.90;;;;;;5030085;28;20021;-84
2023/05/16 05:44:30;;;;;;;12.05;1.88;;;11.20;99.90;;;;;;5029221;28;20548;-84
2023/05/16 05:46:56;;;;;;;11.27;1.90;;;11.10;99.90;;;;;;5029818;28;20108;-84
2023/05/16 05:49:23;;;;;;;13.32;1.85;;;11.20;99.90;;;;;;5030237;28;20166;-84
2023/05/16 05:51:51;;;;;;;9.85;1.77;;;11.20;99.90;;;;;;5028705;28;20026;-84
2023/05/16 05:54:17;;;;;;;13.60;2.05;;;11.20;99.90;;;;;;5029970;28;20034;-84
2023/05/16 05:56:43;;;;;;;10.75;1.55;;;11.30;99.90;;;;;;5029663;28;20030;-84
2023/05/16 05:59:08;;;;;;;11.70;2.03;;;11.10;99.90;;;;;;5029257;28;20033;-83
2023/05/16 06:01:34;;;;;;;8.13;1.65;;;11.20;99.90;;;;;;5029725;28;20023;-83
2023/05/16 06:03:59;;;;;;;6.25;1.63;;;11.10;99.90;;;;;;5030057;28;20108;-84
2023/05/16 06:06:25;;;;;;;8.38;1.70;;;11.00;99.90;;;;;;5029077;28;20472;-84
2023/05/16 06:08:50;;;;;;;7.95;1.65;;;11.10;99.90;;;;;;5029509;28;20048;-83
2023/05/16 06:11:17;;;;;;;12.63;1.70;;;11.10;99.90;;;;;;5029822;28;20017;-84
2023/05/16 06:13:43;;;;;;;7.75;1.80;;;11.10;99.90;;;;;;5029077;28;20025;-84
2023/05/16 06:16:08;;;;;;;9.95;1.77;;;11.10;99.90;;;;;;5029542;28;20112;-84
2023/05/16 06:18:34;;;;;;;14.30;2.30;;;11.20;99.90;;;;;;5029391;28;20047;-84
2023/05/16 06:20:59;;;;;;;10.55;2.10;;;11.50;99.90;;;;;;5028631;28;20033;-84
2023/05/16 06:23:26;;;;;;;10.30;1.88;;;11.00;99.90;;;;;;5029464;28;20026;-84
2023/05/16 06:25:51;;;;;;;9.43;1.77;;;11.10;99.90;;;;;;5029347;28;20308;-85
2023/05/16 06:28:17;;;;;;;5.20;1.85;;;11.10;99.90;;;;;;5028807;28;20112;-85
2023/05/16 06:30:42;;;;;;;11.27;2.10;;;11.10;99.90;;;;;;5029260;28;20025;-85
2023/05/16 06:33:08;;;;;;;12.60;2.25;;;11.20;99.90;;;;;;5029505;28;20079;-84
2023/05/16 06:35:33;;;;;;;8.02;1.48;;;11.20;99.90;;;;;;5028785;28;20134;-84
2023/05/16 06:37:59;;;;;;;14.18;2.20;;;11.30;99.90;;;;;;5029592;28;20021;-84
2023/05/16 06:40:25;;;;;;;11.57;2.08;;;11.30;99.90;;;;;;5029616;28;20031;-85
2023/05/16 06:42:50;;;;;;;7.22;1.48;;;11.30;99.90;;;;;;5028298;28;20385;-84
2023/05/16 06:45:16;;;;;;;9.35;1.60;;;11.30;99.90;;;;;;5029417;28;20109;-85
2023/05/16 06:47:41;;;;;;;14.07;2.28;;;11.30;99.90;;;;;;5028109;28;20056;-84
2023/05/16 06:50:09;;;;;;;8.75;1.40;;;11.40;99.90;;;;;;5030681;28;20477;-84
2023/05/16 06:52:34;;;;;;;7.85;1.45;;;11.40;99.90;;;;;;5035867;28;20054;-85
2023/05/16 06:55:00;;;;;;;16.90;2.25;;;11.50;99.90;;;;;;5035174;28;20149;-84
2023/05/16 06:57:25;;;;;;;8.52;1.60;;;11.50;99.90;;;;;;5035928;28;20022;-83
2023/05/16 06:59:51;;;;;;;10.50;2.22;;;11.50;99.90;;;;;;5035640;28;20746;-84
2023/05/16 07:02:16;;;;;;;7.78;1.42;;;11.50;99.90;;;;;;5034776;28;20033;-83
2023/05/16 07:04:42;;;;;;;7.82;2.05;;;11.50;99.90;;;;;;5035505;28;20046;-83
2023/05/16 07:07:08;;;;;;;9.10;1.30;;;11.40;99.90;;;;;;5035830;28;20108;-83
2023/05/16 07:09:34;;;;;;;6.85;1.58;;;11.40;99.90;;;;;;5034461;28;20116;-83
2023/05/16 07:11:59;;;;;;;9.75;1.42;;;11.40;99.90;;;;;;5035640;28;20026;-83
2023/05/16 07:14:25;;;;;;;9.20;1.52;;;11.50;99.90;;;;;;5035777;28;20034;-82
2023/05/16 07:16:50;;;;;;;5.28;1.35;;;11.50;99.90;;;;;;5034561;28;20078;-84
2023/05/16 07:19:16;;;;;;;6.10;1.08;;;11.60;99.90;;;;;;5035383;28;20024;-85
2023/05/16 07:21:41;;;;;;;6.05;1.33;;;11.70;99.90;;;;;;5035335;28;20026;-85
2023/05/16 07:24:07;;;;;;;8.52;1.40;;;11.70;99.90;;;;;;5034689;28;20022;-84
2023/05/16 07:26:32;;;;;;;9.32;1.60;;;11.70;99.90;;;;;;5035076;28;20026;-85
2023/05/16 07:28:58;;;;;;;8.07;1.30;;;11.60;99.90;;;;;;5035174;28;20033;-85
2023/05/16 07:31:24;;;;;;;8.68;1.50;;;11.70;99.90;;;;;;5034669;28;20021;-84
2023/05/16 07:33:49;;;;;;;4.30;1.27;;;11.70;99.90;;;;;;5035012;28;20052;-85
2023/05/16 07:36:15;;;;;;;10.90;1.73;;;11.70;99.90;;;;;;5035466;28;20045;-84
2023/05/16 07:38:41;;;;;;;5.78;1.33;;;11.80;99.90;;;;;;5034495;28;20029;-84
2023/05/16 07:41:06;;;;;;;9.40;1.65;;;11.70;99.90;;;;;;5035496;28;20028;-84
2023/05/16 07:43:34;;;;;;;9.00;1.33;;;11.70;99.90;;;;;;5034950;28;20057;-84
2023/05/16 07:46:00;;;;;;;7.22;1.35;;;11.70;99.90;;;;;;5034380;28;20032;-84
2023/05/16 07:48:26;;;;;;;5.97;1.23;;;11.60;99.90;;;;;;5034824;28;20404;-84
2023/05/16 07:50:52;;;;;;;8.48;1.17;;;11.60;99.90;;;;;;5035281;28;20033;-85
2023/05/16 07:53:17;;;;;;;7.82;1.77;;;11.70;99.90;;;;;;5034369;28;20362;-84
2023/05/16 07:55:43;;;;;;;6.47;1.60;;;11.60;99.90;;;;;;5034599;28;20028;-84
2023/05/16 07:58:09;;;;;;;6.63;1.58;;;11.70;99.90;;;;;;5034241;28;20067;-84
2023/05/16 08:00:34;;;;;;;4.00;1.30;;;11.70;99.90;;;;;;5034519;28;20034;-84
2023/05/16 08:03:01;;;;;;;4.50;1.40;;;11.70;99.90;;;;;;5031553;28;20021;-84
2023/05/16 08:05:26;;;;;;;7.47;1.20;;;11.80;99.90;;;;;;5030813;28;20480;-84
2023/05/16 08:07:52;;;;;;;4.05;0.98;;;11.70;99.90;;;;;;5031244;28;20080;-84
2023/05/16 08:10:17;;;;;;;6.25;1.17;;;12.00;99.90;;;;;;5031769;28;20029;-84
2023/05/16 08:12:43;;;;;;;3.10;0.85;;;11.80;99.90;;;;;;5030579;28;20472;-85
2023/05/16 08:15:10;;;;;;;9.52;1.20;;;11.80;99.90;;;;;;5031444;28;20021;-83
2023/05/16 08:17:36;;;;;;;9.07;1.02;;;11.80;99.90;;;;;;5031467;28;20029;-84
2023/05/16 08:20:01;;;;;;;8.10;1.13;;;11.80;99.90;;;;;;5031149;28;20109;-83
2023/05/16 08:22:27;;;;;;;4.13;0.88;;;11.80;99.90;;;;;;5031415;28;20520;-83
2023/05/16 08:24:56;;;;;;;11.73;1.70;;;11.80;99.90;;;;;;5031067;28;20040;-84
2023/05/16 08:27:22;;;;;;;4.80;1.15;;;11.90;99.90;;;;;;5030808;28;20507;-84
2023/05/16 08:29:48;;;;;;;6.18;1.52;;;11.90;99.90;;;;;;5031364;28;20389;-84
2023/05/16 08:32:13;;;;;;;5.38;0.95;;;11.90;99.90;;;;;;5031269;28;20014;-84
2023/05/16 08:34:39;;;;;;;7.75;1.55;;;11.90;99.90;;;;;;5030588;28;20026;-84
2023/05/16 08:37:05;;;;;;;4.40;1.33;;;11.90;99.90;;;;;;5031175;28;20032;-84
2023/05/16 08:39:32;;;;;;;6.57;1.40;;;12.00;99.90;;;;;;5031196;28;20082;-84
2023/05/16 08:41:58;;;;;;;9.32;1.30;;;12.10;99.90;;;;;;5030262;28;20473;-84
2023/05/16 08:44:23;;;;;;;16.23;2.30;;;12.10;99.90;;;;;;5030933;28;20049;-83
2023/05/16 08:46:53;;;;;;;7.70;1.50;;;12.20;99.90;;;;;;5031195;28;20029;-84
2023/05/16 08:49:20;;;;;;;3.85;0.90;;;12.20;99.90;;;;;;5030517;28;20034;-83
2023/05/16 08:51:47;;;;;;;5.82;1.50;;;12.30;99.90;;;;;;5031064;28;20051;-84
2023/05/16 08:54:14;;;;;;;7.43;1.20;;;12.20;99.90;;;;;;5030877;28;20086;-84
2023/05/16 08:56:43;;;;;;;10.35;0.95;;;12.20;99.90;;;;;;5030390;28;20029;-83
2023/05/16 08:59:11;;;;;;;5.75;1.15;;;12.20;99.90;;;;;;5030850;28;20025;-83
2023/05/16 09:01:36;;;;;;;6.70;1.00;;;12.30;99.90;;;;;;5030390;28;20497;-84
2023/05/16 09:04:04;;;;;;;5.07;1.38;;;12.30;99.90;;;;;;5030920;28;20030;-84
2023/05/16 09:06:29;;;;;;;8.02;1.00;;;12.30;99.90;;;;;;5030824;28;20025;-83
2023/05/16 09:08:55;;;;;;;12.40;1.23;;;12.30;99.90;;;;;;5030047;28;20040;-83
2023/05/16 09:11:21;;;;;;;5.15;0.93;;;12.30;99.90;;;;;;5030780;28;20025;-84
2023/05/16 09:13:48;;;;;;;3.83;1.10;;;12.30;99.90;;;;;;5028902;28;20120;-84
2023/05/16 09:16:14;;;;;;;3.65;0.77;;;12.40;99.90;;;;;;5030029;28;20017;-83
2023/05/16 09:18:43;;;;;;;6.50;2.05;;;12.40;99.90;;;;;;5030648;28;20116;-83
2023/05/16 09:21:10;;;;;;;4.13;1.20;;;12.40;99.90;;;;;;5030706;28;20021;-83
2023/05/16 09:23:36;;;;;;;9.45;1.55;;;12.30;99.90;;;;;;5029913;28;20053;-84
2023/05/16 09:26:04;;;;;;;7.63;1.30;;;12.40;99.90;;;;;;5030801;28;20049;-83
2023/05/16 09:28:30;;;;;;;6.13;1.23;;;12.40;99.90;;;;;;5030846;28;20121;-84
2023/05/16 09:30:58;;;;;;;5.32;1.00;;;12.50;99.90;;;;;;5029898;28;20033;-84
2023/05/16 09:33:27;;;;;;;8.23;1.58;;;12.60;99.90;;;;;;5030375;28;20033;-84
2023/05/16 09:36:01;;;;;;;7.80;1.50;;;12.50;99.90;;;;;;5030332;28;20112;-84
2023/05/16 09:38:27;;;;;;;8.65;1.55;;;12.50;99.90;;;;;;5029438;28;20068;-84
2023/05/16 09:40:54;;;;;;;7.30;1.65;;;12.50;99.90;;;;;;5029752;28;20073;-83
2023/05/16 09:43:24;;;;;;;5.95;1.40;;;12.50;99.90;;;;;;5029958;28;20489;-84
2023/05/16 09:45:49;;;;;;;3.95;1.40;;;12.60;99.90;;;;;;5029352;28;20112;-83
2023/05/16 09:48:16;;;;;;;5.90;1.42;;;12.60;99.90;;;;;;5030386;28;20117;-84
2023/05/16 09:50:48;;;;;;;8.65;1.75;;;12.60;99.90;;;;;;5029216;28;20480;-84
2023/05/16 09:53:14;;;;;;;5.13;1.27;;;12.60;99.90;;;;;;5030089;28;20419;-84
2023/05/16 09:55:39;;;;;;;3.58;1.50;;;12.60;99.90;;;;;;5029593;28;20021;-84
2023/05/16 09:58:05;;;;;;;5.65;1.10;;;12.60;99.90;;;;;;5029495;28;20025;-84
2023/05/16 10:00:32;;;;;;;3.15;0.90;;;12.60;99.90;;;;;;5030205;28;20324;-84
2023/05/16 10:02:59;;;;;;;5.50;1.30;;;12.60;99.90;;;;;;5030248;28;20026;-84
2023/05/16 10:05:26;;;;;;;6.30;1.20;;;12.70;99.90;;;;;;5029122;28;20066;-84
2023/05/16 10:07:55;;;;;;;4.60;1.15;;;12.70;99.90;;;;;;5029709;28;20033;-84
2023/05/16 10:10:21;;;;;;;5.05;1.45;;;12.70;99.90;;;;;;5030079;28;20082;-84
2023/05/16 10:12:49;;;;;;;6.40;0.93;;;12.70;99.90;;;;;;5029038;28;20029;-84
2023/05/16 10:15:16;;;;;;;4.35;1.10;;;12.80;99.90;;;;;;5029897;28;20029;-84
2023/05/16 10:17:44;;;;;;;5.63;1.30;;;12.80;99.90;;;;;;5029576;28;20094;-84
2023/05/16 10:20:11;;;;;;;9.43;1.50;;;12.90;99.90;;;;;;5028633;28;20025;-83
2023/05/16 10:22:42;;;;;;;6.50;1.38;;;12.90;99.90;;;;;;5028021;28;20033;-84
2023/05/16 10:25:13;;;;;;;6.47;1.30;;;12.90;99.90;;;;;;5029397;28;20033;-84
2023/05/16 10:27:40;;;;;;;9.07;1.30;;;12.90;99.90;;;;;;5028976;28;20094;-84
2023/05/16 10:30:08;;;;;;;4.50;1.00;;;13.00;99.90;;;;;;5029492;28;20041;-84
2023/05/16 10:32:35;;;;;;;6.78;1.33;;;13.00;99.90;;;;;;5028913;28;20553;-83
2023/05/16 10:35:02;;;;;;;3.17;0.98;;;13.00;99.90;;;;;;5028663;28;20041;-84
2023/05/16 10:37:29;;;;;;;6.47;1.50;;;13.10;99.90;;;;;;5029703;28;20026;-84
2023/05/16 10:39:55;;;;;;;7.18;1.77;;;13.00;99.90;;;;;;5028624;28;20071;-84
2023/05/16 10:42:21;;;;;;;10.13;1.88;;;13.00;99.90;;;;;;5029417;28;20025;-84
2023/05/16 10:44:46;;;;;;;8.93;1.50;;;13.10;99.90;;;;;;5028929;28;20495;-84
2023/05/16 10:47:17;;;;;;;2.90;1.30;;;13.10;99.90;;;;;;5028757;28;20036;-83
2023/05/16 10:49:42;;;;;;;4.22;1.00;;;13.00;99.90;;;;;;5029081;28;20092;-84
2023/05/16 10:52:09;;;;;;;4.53;1.05;;;13.00;99.90;;;;;;5029095;28;20469;-84
2023/05/16 10:54:43;;;;;;;9.80;1.15;;;13.00;99.90;;;;;;5028395;28;20108;-84
2023/05/16 10:57:16;;;;;;;9.50;1.65;;;13.00;99.90;;;;;;5029356;28;20033;-84
2023/05/16 10:59:46;;;;;;;6.70;1.08;;;13.10;99.90;;;;;;5029096;28;20053;-84
2023/05/16 11:02:28;;;;;;;6.65;1.65;;;13.10;99.90;;;;;;5028650;28;20022;-83
2023/05/16 11:04:56;;;;;;;3.97;0.90;;;13.10;99.90;;;;;;5028574;28;20388;-83
2023/05/16 11:07:23;;;;;;;4.82;0.88;;;13.10;99.90;;;;;;5028953;28;20033;-84
2023/05/16 11:10:09;;;;;;;8.60;1.33;;;13.10;99.90;;;;;;5028000;28;20048;-84
2023/05/16 11:12:51;;;;;;;7.65;1.00;;;13.10;99.90;;;;;;5028626;28;20021;-84
2023/05/16 11:15:27;;;;;;;7.60;1.15;;;13.20;99.90;;;;;;5028661;28;20025;-84
2023/05/16 11:18:15;;;;;;;4.75;1.05;;;13.20;99.90;;;;;;5028834;28;20042;-83
2023/05/16 11:20:41;;;;;;;4.72;0.88;;;13.20;99.90;;;;;;5028505;28;20096;-84
2023/05/16 11:23:15;;;;;;;2.45;0.85;;;13.20;99.90;;;;;;5028026;28;20026;-83
2023/05/16 11:25:42;;;;;;;6.68;0.82;;;13.30;99.90;;;;;;5028922;28;20025;-83
2023/05/16 11:28:09;;;;;;;4.03;1.15;;;13.20;99.90;;;;;;5028749;28;20061;-83
2023/05/16 11:30:35;;;;;;;5.50;1.20;;;13.30;99.90;;;;;;5028022;28;20037;-83
2023/05/16 11:33:01;;;;;;;3.33;1.20;;;13.30;99.90;;;;;;5029079;28;20025;-82
2023/05/16 11:35:27;;;;;;;4.32;1.27;;;13.40;99.90;;;;;;5028611;28;20074;-83
2023/05/16 11:37:53;;;;;;;3.72;1.02;;;13.30;99.90;;;;;;5029392;28;20380;-83
2023/05/16 11:40:18;;;;;;;4.72;1.30;;;13.40;99.90;;;;;;5032275;28;20033;-82
2023/05/16 11:42:46;;;;;;;3.58;0.98;;;13.40;99.90;;;;;;5031729;28;20046;-83
2023/05/16 11:45:16;;;;;;;11.05;1.45;;;13.30;99.90;;;;;;5030786;28;20098;-84
2023/05/16 11:47:43;;;;;;;4.93;0.90;;;13.30;99.90;;;;;;5031747;28;20321;-84
2023/05/16 11:50:17;;;;;;;2.17;0.85;;;13.30;99.90;;;;;;5031162;28;20479;-83
2023/05/16 11:52:45;;;;;;;5.30;0.98;;;13.40;99.90;;;;;;5031858;28;20051;-84
2023/05/16 11:55:11;;;;;;;6.00;1.23;;;13.40;99.90;;;;;;5032027;28;20437;-84
2023/05/16 11:57:38;;;;;;;8.00;1.25;;;13.40;99.90;;;;;;5030709;28;20496;-84
2023/05/16 12:00:10;;;;;;;9.10;1.40;;;13.50;99.90;;;;;;5031944;28;20030;-84
2023/05/16 12:02:35;;;;;;;5.03;1.38;;;13.50;99.90;;;;;;5031402;28;20025;-84
2023/05/16 12:05:09;;;;;;;2.38;0.85;;;13.50;99.90;;;;;;5031282;28;20150;-83
2023/05/16 12:07:38;;;;;;;4.60;1.20;;;13.50;99.90;;;;;;5031521;28;20072;-83
2023/05/16 12:10:10;;;;;;;6.07;1.10;;;13.50;99.90;;;;;;5031946;28;20061;-83
2023/05/16 12:12:38;;;;;;;4.88;1.20;;;13.60;99.90;;;;;;5031237;28;20101;-84
2023/05/16 12:15:05;;;;;;;4.20;1.08;;;13.60;99.90;;;;;;5031832;28;20052;-83
2023/05/16 12:17:33;;;;;;;2.72;1.27;;;13.60;99.90;;;;;;5031851;28;20044;-84
2023/05/16 12:19:59;;;;;;;6.95;1.20;;;13.70;99.90;;;;;;5031232;28;20033;-83
2023/05/16 12:22:25;;;;;;;6.32;1.13;;;13.60;99.90;;;;;;5031608;28;20025;-83
2023/05/16 12:24:50;;;;;;;5.85;1.13;;;13.60;99.90;;;;;;5031182;28;20027;-83
2023/05/16 12:27:24;;;;;;;5.82;1.27;;;13.60;99.90;;;;;;5030797;28;20053;-83
2023/05/16 12:29:49;;;;;;;5.20;1.10;;;13.60;99.90;;;;;;5030626;28;20038;-83
2023/05/16 12:32:19;;;;;;;6.07;2.10;;;13.60;99.90;;;;;;5031365;28;20082;-83
2023/05/16 12:34:52;;;;;;;6.35;1.35;;;13.70;99.90;;;;;;5031172;28;20079;-83
2023/05/16 12:37:18;;;;;;;3.72;1.15;;;13.60;99.90;;;;;;5031486;28;20037;-83
2023/05/16 12:39:47;;;;;;;5.88;1.52;;;13.70;99.90;;;;;;5030362;28;20029;-82
2023/05/16 12:42:13;;;;;;;8.38;1.63;;;13.80;99.90;;;;;;5030889;28;20388;-85